Time;durP1;ratioP1;P1;durP2;ratioP2;P2;SDS_P1;SDS_P2;PMS_P1;PMS_P2;Temp;Humidity;BMP_temperature;BMP_pressure;BME280_temperature;BME280_humidity;BME280_pressure;Samples;Min_cycle;Max_cycle;Signal;HPM_P1;HPM_P2
2023/10/08 00:01:35;;;;;;;21.83;10.30;;;13.10;95.60;;;;;;5066311;28;20511;-76
2023/10/08 00:04:04;;;;;;;16.83;9.05;;;13.10;95.40;;;;;;5057690;28;20047;-76
2023/10/08 00:06:30;;;;;;;13.50;7.93;;;13.00;95.30;;;;;;5068939;28;20423;-75
2023/10/08 00:08:59;;;;;;;16.35;9.05;;;13.00;95.40;;;;;;5054592;28;20040;-76
2023/10/08 00:11:26;;;;;;;28.52;15.57;;;13.00;95.40;;;;;;5087053;28;20029;-76
2023/10/08 00:13:56;;;;;;;28.33;13.55;;;13.00;95.60;;;;;;5058870;28;20536;-76
2023/10/08 00:16:22;;;;;;;18.33;8.05;;;13.00;95.60;;;;;;5071556;28;20032;-76
2023/10/08 00:18:50;;;;;;;15.00;7.45;;;13.00;95.60;;;;;;5059492;28;20123;-76
2023/10/08 00:21:16;;;;;;;13.52;5.55;;;13.00;95.60;;;;;;5062076;28;20139;-76
2023/10/08 00:23:52;;;;;;;14.35;7.25;;;12.90;95.80;;;;;;5056082;28;20049;-76
2023/10/08 00:26:27;;;;;;;18.85;9.10;;;12.90;96.10;;;;;;5072972;28;20031;-76
2023/10/08 00:28:55;;;;;;;46.20;25.30;;;13.00;96.10;;;;;;5059385;28;20036;-76
2023/10/08 00:31:25;;;;;;;29.70;16.38;;;12.90;96.10;;;;;;5072095;28;20032;-76
2023/10/08 00:33:51;;;;;;;24.85;15.63;;;12.90;96.00;;;;;;5056724;28;20046;-77
2023/10/08 00:36:18;;;;;;;17.05;10.13;;;12.90;95.80;;;;;;5069016;28;20032;-76
2023/10/08 00:38:50;;;;;;;20.23;8.15;;;12.90;96.00;;;;;;5059091;28;20035;-76
2023/10/08 00:41:19;;;;;;;22.10;12.15;;;13.00;96.60;;;;;;5062693;28;20032;-76
2023/10/08 00:43:45;;;;;;;16.13;8.32;;;13.00;96.80;;;;;;5057876;28;20040;-76
2023/10/08 00:46:21;;;;;;;25.85;13.50;;;13.00;96.80;;;;;;5062908;28;21580;-77
2023/10/08 00:48:49;;;;;;;34.35;21.33;;;13.00;96.70;;;;;;5062235;28;20040;-77
2023/10/08 00:51:25;;;;;;;27.15;15.95;;;13.00;96.70;;;;;;5059538;28;20526;-76
2023/10/08 00:53:58;;;;;;;17.13;7.55;;;13.00;96.60;;;;;;5062505;28;20560;-77
2023/10/08 00:56:44;;;;;;;18.23;6.65;;;13.00;97.00;;;;;;5058126;28;20103;-77
2023/10/08 00:59:42;;;;;;;17.33;6.70;;;13.00;97.30;;;;;;5067279;28;20039;-77
2023/10/08 01:02:14;;;;;;;23.80;12.52;;;13.00;97.30;;;;;;5068494;28;20040;-77
2023/10/08 01:04:40;;;;;;;38.90;19.90;;;13.00;97.00;;;;;;5060493;28;20036;-77
2023/10/08 01:07:13;;;;;;;21.65;11.25;;;13.00;96.70;;;;;;5068397;28;20388;-76
2023/10/08 01:09:42;;;;;;;19.00;9.90;;;13.00;96.90;;;;;;5055929;28;20043;-77
2023/10/08 01:12:11;;;;;;;16.80;8.43;;;13.00;97.00;;;;;;5070603;28;20082;-77
2023/10/08 01:14:37;;;;;;;14.60;6.15;;;13.00;96.80;;;;;;5062002;28;20023;-76
2023/10/08 01:17:06;;;;;;;15.52;6.82;;;12.90;96.70;;;;;;5061596;28;20028;-76
2023/10/08 01:19:32;;;;;;;30.77;15.55;;;13.00;96.90;;;;;;5068499;28;20055;-76
2023/10/08 01:22:07;;;;;;;31.33;14.90;;;12.90;96.80;;;;;;5050965;28;20130;-76
2023/10/08 01:24:35;;;;;;;28.05;11.95;;;12.90;96.60;;;;;;5068143;28;20109;-77
2023/10/08 01:27:04;;;;;;;18.77;8.55;;;12.90;96.80;;;;;;5056990;28;20028;-77
2023/10/08 01:29:31;;;;;;;;;;;12.90;96.80;;;;;;5066744;28;20039;-77
2023/10/08 01:31:57;;;;;;;14.77;7.03;;;12.90;96.80;;;;;;5059125;28;19935;-75
2023/10/08 01:34:30;;;;;;;12.57;6.35;;;12.80;96.70;;;;;;5087262;28;20043;-76
2023/10/08 01:37:09;;;;;;;14.80;6.07;;;12.80;96.90;;;;;;5064518;28;20031;-76
2023/10/08 01:39:37;;;;;;;21.35;10.10;;;12.80;96.90;;;;;;5077140;28;20603;-76
2023/10/08 01:42:05;;;;;;;25.13;10.55;;;12.80;96.80;;;;;;5059795;28;20040;-76
2023/10/08 01:44:31;;;;;;;17.60;8.75;;;12.80;96.90;;;;;;5073126;28;20090;-76
2023/10/08 01:46:58;;;;;;;18.63;6.85;;;12.80;96.70;;;;;;5062357;28;20036;-76
2023/10/08 01:49:29;;;;;;;19.25;6.55;;;12.80;96.80;;;;;;5070091;28;20511;-76
2023/10/08 01:51:55;;;;;;;14.75;6.47;;;12.70;97.00;;;;;;5059737;28;20061;-76
2023/10/08 01:54:21;;;;;;;12.55;6.05;;;12.80;97.10;;;;;;5070298;28;20021;-76
2023/10/08 01:56:47;;;;;;;13.80;5.63;;;12.80;97.00;;;;;;5061121;28;20036;-76
2023/10/08 01:59:15;;;;;;;17.63;6.05;;;12.90;97.10;;;;;;5076277;28;21447;-76
2023/10/08 02:01:42;;;;;;;13.73;6.03;;;13.00;97.00;;;;;;5064626;28;21262;-77
2023/10/08 02:04:11;;;;;;;15.07;5.70;;;13.00;96.40;;;;;;5055112;28;21046;-77
2023/10/08 02:06:39;;;;;;;12.50;5.13;;;13.00;96.40;;;;;;5042523;28;20523;-76
2023/10/08 02:09:07;;;;;;;11.30;5.75;;;13.00;96.40;;;;;;5061855;28;20044;-77
2023/10/08 02:11:50;;;;;;;13.57;6.30;;;13.00;96.30;;;;;;5029412;28;20134;-75
2023/10/08 02:14:17;;;;;;;15.75;5.38;;;13.00;96.30;;;;;;5051334;28;20097;-76
2023/10/08 02:16:44;;;;;;;9.80;5.22;;;12.90;96.30;;;;;;5065768;28;20032;-76
2023/10/08 02:19:11;;;;;;;13.55;6.00;;;12.80;96.20;;;;;;5053734;28;20452;-75
2023/10/08 02:21:39;;;;;;;13.82;5.32;;;12.80;96.50;;;;;;5070941;28;20032;-76
2023/10/08 02:24:08;;;;;;;16.10;5.57;;;12.80;96.60;;;;;;5061725;28;20043;-76
2023/10/08 02:26:34;;;;;;;11.65;4.75;;;12.70;96.30;;;;;;5069048;28;20161;-76
2023/10/08 02:29:01;;;;;;;17.20;6.28;;;12.70;96.30;;;;;;5057735;28;20641;-75
2023/10/08 02:31:27;;;;;;;14.82;5.35;;;12.70;96.70;;;;;;5074675;28;20489;-77
2023/10/08 02:33:53;;;;;;;13.65;5.50;;;12.70;96.80;;;;;;5056865;28;20093;-76
2023/10/08 02:36:19;;;;;;;11.60;5.28;;;12.60;96.60;;;;;;5079099;28;20439;-76
2023/10/08 02:38:45;;;;;;;9.77;5.20;;;12.60;96.50;;;;;;5065285;28;20036;-77
2023/10/08 02:41:16;;;;;;;14.73;5.43;;;12.50;96.30;;;;;;5071425;28;20077;-76
2023/10/08 02:43:44;;;;;;;15.27;5.45;;;12.50;96.30;;;;;;5061251;28;20444;-75
2023/10/08 02:46:14;;;;;;;9.25;5.28;;;12.50;96.00;;;;;;5063617;28;20040;-75
2023/10/08 02:48:41;;;;;;;15.00;5.78;;;12.50;96.40;;;;;;5053272;28;20500;-75
2023/10/08 02:51:13;;;;;;;11.88;6.13;;;12.40;96.50;;;;;;5070701;28;20043;-75
2023/10/08 02:53:42;;;;;;;12.73;6.10;;;12.30;96.50;;;;;;5057897;28;20039;-75
2023/10/08 02:56:12;;;;;;;10.82;5.63;;;12.30;96.50;;;;;;5077087;28;20035;-75
2023/10/08 02:58:39;;;;;;;13.77;6.00;;;12.20;96.40;;;;;;5080188;28;20512;-76
2023/10/08 03:01:05;;;;;;;12.45;5.95;;;12.20;96.40;;;;;;5057442;28;20031;-75
2023/10/08 03:03:32;;;;;;;11.18;6.15;;;12.20;96.40;;;;;;5071769;28;20032;-76
2023/10/08 03:05:58;;;;;;;13.18;5.95;;;12.20;96.40;;;;;;5058816;28;20024;-75
2023/10/08 03:08:24;;;;;;;10.32;5.55;;;12.20;96.90;;;;;;5074803;28;20520;-75
2023/10/08 03:10:55;;;;;;;10.68;5.20;;;12.20;97.50;;;;;;5061457;28;21261;-75
2023/10/08 03:13:21;;;;;;;13.07;5.80;;;12.30;97.20;;;;;;5067211;28;20055;-75
2023/10/08 03:18:40;;;;;;;10.13;5.38;;;12.20;96.30;;;;;;5067741;28;20412;-75
2023/10/08 03:21:47;;;;;;;9.57;5.88;;;12.30;96.30;;;;;;5056561;28;20414;-75
2023/10/08 03:23:57;;;;;;;12.63;6.90;;;12.20;96.30;;;;;;5067502;28;20133;-75
2023/10/08 03:26:39;;;;;;;15.52;8.77;;;12.20;96.40;;;;;;5052737;28;20033;-75
2023/10/08 03:29:07;;;;;;;18.27;10.13;;;12.20;96.80;;;;;;5073768;28;20028;-76
2023/10/08 03:31:50;;;;;;;18.75;8.25;;;12.10;96.40;;;;;;5058096;28;20036;-77
2023/10/08 03:34:18;;;;;;;19.73;8.82;;;12.10;96.30;;;;;;5065953;28;20048;-75
2023/10/08 03:36:45;;;;;;;21.92;9.13;;;12.10;96.40;;;;;;5057136;28;20032;-76
2023/10/08 03:39:13;;;;;;;14.32;8.30;;;12.00;96.50;;;;;;5070418;28;20029;-75
2023/10/08 03:41:39;;;;;;;12.55;7.25;;;12.00;96.70;;;;;;5058280;28;20373;-75
2023/10/08 03:44:12;;;;;;;12.00;6.85;;;12.00;96.60;;;;;;5077305;28;20395;-75
2023/10/08 03:46:42;;;;;;;17.95;6.45;;;11.90;96.40;;;;;;5052151;28;20150;-75
2023/10/08 03:49:26;;;;;;;11.50;6.57;;;11.90;96.50;;;;;;5069996;28;20385;-75
2023/10/08 03:51:52;;;;;;;10.73;6.13;;;11.90;96.60;;;;;;5054677;28;20031;-76
2023/10/08 03:54:20;;;;;;;16.83;7.28;;;11.90;96.60;;;;;;5061849;28;20039;-75
2023/10/08 03:56:48;;;;;;;12.10;5.07;;;11.90;96.60;;;;;;5054094;28;20462;-75
2023/10/08 03:59:20;;;;;;;11.77;5.72;;;11.90;96.70;;;;;;5064721;28;20560;-76
2023/10/08 04:01:49;;;;;;;11.95;5.53;;;11.90;96.90;;;;;;5052615;28;20391;-75
2023/10/08 04:04:15;;;;;;;11.20;5.28;;;12.00;96.90;;;;;;5074072;28;20114;-75
2023/10/08 04:06:49;;;;;;;12.23;5.32;;;12.00;96.80;;;;;;5053577;28;20035;-75
2023/10/08 04:11:51;;;;;;;10.85;5.57;;;11.90;96.40;;;;;;5061607;28;20046;-76
2023/10/08 04:14:18;;;;;;;9.82;5.28;;;11.90;96.60;;;;;;5070035;28;20380;-76
2023/10/08 04:16:45;;;;;;;13.57;6.20;;;11.90;96.80;;;;;;5061168;28;20025;-75
2023/10/08 04:19:11;;;;;;;12.60;6.10;;;12.00;96.90;;;;;;5086337;28;20032;-76
2023/10/08 04:21:42;;;;;;;14.55;6.15;;;12.00;96.80;;;;;;5057337;28;20036;-75
2023/10/08 04:24:08;;;;;;;16.40;6.18;;;12.00;97.00;;;;;;5070510;28;20539;-76
2023/10/08 04:26:34;;;;;;;11.85;6.28;;;12.00;97.10;;;;;;5064561;28;21095;-76
2023/10/08 04:29:02;;;;;;;11.75;5.85;;;12.00;96.90;;;;;;5057793;28;20549;-76
2023/10/08 04:31:37;;;;;;;13.18;5.85;;;12.00;96.90;;;;;;5071836;28;21156;-76
2023/10/08 04:34:36;;;;;;;12.20;6.18;;;12.00;97.30;;;;;;5052982;28;20158;-76
2023/10/08 04:36:54;;;;;;;16.35;6.18;;;12.10;97.30;;;;;;5072057;28;20032;-76
2023/10/08 04:39:26;;;;;;;12.88;5.70;;;12.10;97.50;;;;;;5059904;28;20085;-76
2023/10/08 04:41:54;;;;;;;12.15;5.30;;;12.10;97.10;;;;;;5069537;28;20131;-76
2023/10/08 04:44:21;;;;;;;9.60;4.50;;;12.00;96.70;;;;;;5061345;28;20601;-76
2023/10/08 04:46:51;;;;;;;13.43;5.28;;;12.00;96.60;;;;;;5067596;28;20283;-76
2023/10/08 04:49:34;;;;;;;11.88;5.15;;;12.00;97.00;;;;;;5054662;28;20127;-76
2023/10/08 04:52:08;;;;;;;12.60;5.22;;;12.00;97.10;;;;;;5066263;28;20127;-75
2023/10/08 04:54:39;;;;;;;9.98;4.90;;;12.00;97.20;;;;;;5049304;28;20032;-75
2023/10/08 04:57:06;;;;;;;11.40;5.63;;;12.00;97.20;;;;;;5066407;28;20024;-75
2023/10/08 04:59:33;;;;;;;9.45;5.63;;;12.00;96.90;;;;;;5052678;28;20028;-76
2023/10/08 05:02:13;;;;;;;9.52;5.43;;;12.00;96.80;;;;;;5065751;28;20138;-77
2023/10/08 05:08:38;;;;;;;9.77;5.35;;;11.90;96.30;;;;;;5067341;28;20091;-76
2023/10/08 05:10:44;;;;;;;8.30;4.88;;;11.80;96.30;;;;;;5056747;28;20092;-76
2023/10/08 05:16:01;;;;;;;8.68;4.47;;;11.70;96.00;;;;;;5066201;28;20017;-76
2023/10/08 05:18:54;;;;;;;14.05;5.68;;;11.70;96.10;;;;;;5063176;28;20025;-76
2023/10/08 05:21:25;;;;;;;9.48;5.57;;;11.70;96.40;;;;;;5062313;28;20523;-76
2023/10/08 05:24:08;;;;;;;11.50;5.05;;;11.60;96.50;;;;;;5054006;28;20051;-75
2023/10/08 05:26:42;;;;;;;10.80;4.88;;;11.60;96.50;;;;;;5061449;28;20521;-75
2023/10/08 05:31:36;;;;;;;11.68;4.53;;;11.60;96.40;;;;;;5053073;28;21255;-76
2023/10/08 05:32:37;;;;;;;8.55;5.13;;;11.50;96.50;;;;;;5067133;28;20059;-76
2023/10/08 05:34:50;;;;;;;15.48;5.35;;;11.50;96.40;;;;;;5048819;28;20578;-76
2023/10/08 05:37:32;;;;;;;9.70;4.90;;;11.50;96.50;;;;;;5066863;28;20040;-76
2023/10/08 05:40:11;;;;;;;9.60;4.60;;;11.50;96.60;;;;;;5057366;28;20032;-76
2023/10/08 05:42:46;;;;;;;9.95;4.68;;;11.50;96.70;;;;;;5076155;28;20110;-76
2023/10/08 05:47:38;;;;;;;7.57;4.47;;;11.50;96.80;;;;;;5065364;28;20032;-77
2023/10/08 05:50:38;;;;;;;10.60;4.22;;;11.40;96.80;;;;;;5058652;28;21136;-76
2023/10/08 05:52:53;;;;;;;11.10;5.45;;;11.40;96.90;;;;;;5069092;28;20047;-75
2023/10/08 05:55:25;;;;;;;10.57;4.90;;;11.40;96.60;;;;;;5051258;28;20384;-76
2023/10/08 05:58:02;;;;;;;12.77;5.00;;;11.40;96.60;;;;;;5065793;28;20428;-76
2023/10/08 06:00:46;;;;;;;9.45;4.90;;;11.30;96.60;;;;;;5051660;28;20595;-75
2023/10/08 06:03:31;;;;;;;9.52;4.65;;;11.30;96.70;;;;;;5072315;28;20024;-76
2023/10/08 06:08:12;;;;;;;7.95;4.85;;;11.30;96.90;;;;;;5052462;28;20048;-76
2023/10/08 06:09:23;;;;;;;13.65;5.20;;;11.30;96.70;;;;;;5064704;28;20444;-77
2023/10/08 06:11:41;;;;;;;7.60;4.20;;;11.30;96.70;;;;;;5053660;28;20028;-76
2023/10/08 06:14:16;;;;;;;9.95;4.60;;;11.40;96.80;;;;;;5066900;28;20059;-76
2023/10/08 06:16:44;;;;;;;10.63;4.78;;;11.40;96.40;;;;;;5054349;28;20553;-76
2023/10/08 06:19:11;;;;;;;14.95;5.68;;;11.40;96.60;;;;;;5069291;28;21443;-76
2023/10/08 06:21:39;;;;;;;8.68;4.85;;;11.40;96.60;;;;;;5054620;28;20068;-76
2023/10/08 06:24:08;;;;;;;9.93;5.57;;;11.40;96.60;;;;;;5071936;28;20045;-78
2023/10/08 06:26:42;;;;;;;10.15;5.43;;;11.40;97.00;;;;;;5055600;28;20510;-76
2023/10/08 06:29:27;;;;;;;10.93;5.82;;;11.40;97.00;;;;;;5068986;28;20055;-76
2023/10/08 06:31:55;;;;;;;9.18;4.93;;;11.40;96.90;;;;;;5056952;28;20046;-76
2023/10/08 06:34:22;;;;;;;9.20;5.40;;;11.30;96.90;;;;;;5066848;28;20035;-76
2023/10/08 06:36:53;;;;;;;9.52;5.05;;;11.30;97.00;;;;;;5057771;28;20051;-76
2023/10/08 06:39:25;;;;;;;10.68;5.28;;;11.30;97.10;;;;;;5071118;28;20778;-76
2023/10/08 06:41:52;;;;;;;10.27;4.82;;;11.40;97.20;;;;;;5052623;28;20118;-76
2023/10/08 06:44:17;;;;;;;13.45;5.00;;;11.50;97.10;;;;;;5073306;28;20020;-76
2023/10/08 06:46:44;;;;;;;12.55;5.00;;;11.60;96.80;;;;;;5058478;28;20032;-75
2023/10/08 06:49:13;;;;;;;8.30;4.75;;;11.70;96.70;;;;;;5068223;28;20111;-76
2023/10/08 06:51:41;;;;;;;11.32;5.00;;;11.70;96.70;;;;;;5059903;28;20024;-76
2023/10/08 06:54:10;;;;;;;9.20;5.18;;;11.80;96.60;;;;;;5070550;28;20126;-76
2023/10/08 06:56:36;;;;;;;12.45;5.78;;;11.90;96.60;;;;;;5071476;28;20082;-77
2023/10/08 06:59:03;;;;;;;10.32;5.00;;;12.10;96.60;;;;;;5054755;28;20036;-77
2023/10/08 07:02:01;;;;;;;10.32;5.22;;;12.20;96.50;;;;;;5072084;28;20129;-76
2023/10/08 07:04:14;;;;;;;11.10;5.32;;;12.40;96.00;;;;;;5067667;28;20040;-76
2023/10/08 07:06:42;;;;;;;14.95;5.88;;;12.60;95.70;;;;;;5075182;28;20510;-76
2023/10/08 07:09:22;;;;;;;9.55;5.22;;;12.80;95.30;;;;;;5059464;28;21158;-76
2023/10/08 07:11:49;;;;;;;16.40;5.32;;;13.00;95.20;;;;;;5073275;28;20024;-76
2023/10/08 07:14:15;;;;;;;11.82;4.95;;;13.30;94.60;;;;;;5054937;28;20123;-76
2023/10/08 07:16:41;;;;;;;11.73;5.82;;;13.60;94.10;;;;;;5073878;28;20123;-77
2023/10/08 07:19:16;;;;;;;12.10;5.03;;;13.80;93.60;;;;;;5061749;28;20039;-76
2023/10/08 07:21:45;;;;;;;11.15;5.40;;;14.10;93.00;;;;;;5069749;28;20025;-76
2023/10/08 07:24:21;;;;;;;15.60;5.28;;;14.30;92.60;;;;;;5062930;28;20064;-76
2023/10/08 07:26:49;;;;;;;9.85;4.57;;;14.60;91.90;;;;;;5070475;28;20447;-76
2023/10/08 07:29:17;;;;;;;10.18;4.63;;;14.80;91.80;;;;;;5057040;28;20503;-77
2023/10/08 07:31:48;;;;;;;11.80;4.75;;;15.10;91.00;;;;;;5069316;28;20051;-76
2023/10/08 07:34:16;;;;;;;8.77;4.18;;;15.30;90.90;;;;;;5073848;28;20043;-76
2023/10/08 07:36:43;;;;;;;12.10;4.22;;;15.50;90.60;;;;;;5097659;28;20030;-76
2023/10/08 07:39:22;;;;;;;8.18;3.95;;;15.70;90.40;;;;;;5082698;28;20184;-75
2023/10/08 07:41:49;;;;;;;9.38;4.68;;;15.90;90.00;;;;;;5093245;28;20092;-76
2023/10/08 07:44:15;;;;;;;10.48;4.90;;;16.20;89.20;;;;;;5087979;28;20087;-75
2023/10/08 07:46:41;;;;;;;9.32;4.88;;;16.30;88.90;;;;;;5097464;28;20032;-77
2023/10/08 07:49:07;;;;;;;10.77;4.97;;;16.50;89.20;;;;;;5087159;28;20051;-77
2023/10/08 07:51:33;;;;;;;9.35;4.95;;;16.70;88.20;;;;;;5078287;28;20040;-77
2023/10/08 07:53:59;;;;;;;9.55;4.57;;;16.90;87.80;;;;;;5059736;28;20032;-76
2023/10/08 07:56:26;;;;;;;10.10;4.57;;;17.00;87.80;;;;;;5068250;28;20032;-76
2023/10/08 07:58:52;;;;;;;10.60;5.10;;;17.20;87.50;;;;;;5057965;28;20028;-76
2023/10/08 08:01:20;;;;;;;14.05;5.57;;;17.20;87.40;;;;;;5064193;28;21151;-76
2023/10/08 08:03:48;;;;;;;12.70;5.45;;;17.30;87.40;;;;;;5068900;28;20460;-76
2023/10/08 08:06:15;;;;;;;14.95;5.50;;;17.40;87.20;;;;;;5064781;28;20509;-76
2023/10/08 08:08:41;;;;;;;16.42;6.00;;;17.40;88.00;;;;;;5069060;28;20069;-76
2023/10/08 08:11:26;;;;;;;13.27;5.45;;;17.20;88.40;;;;;;5060403;28;20032;-76
2023/10/08 08:13:52;;;;;;;18.10;5.68;;;17.30;88.80;;;;;;5067360;28;20020;-75
2023/10/08 08:16:19;;;;;;;16.13;5.80;;;17.40;88.50;;;;;;5053547;28;20067;-76
2023/10/08 08:18:48;;;;;;;15.40;5.88;;;17.30;88.90;;;;;;5069838;28;20024;-76
2023/10/08 08:21:15;;;;;;;;;;;17.30;89.10;;;;;;5056628;28;20508;-75
2023/10/08 08:23:48;;;;;;;13.98;5.13;;;17.40;89.20;;;;;;5075346;28;20303;-75
2023/10/08 08:28:28;;;;;;;11.13;5.32;;;17.50;88.80;;;;;;5071236;28;20062;-75
2023/10/08 08:29:02;;;;;;;18.20;5.78;;;17.60;88.40;;;;;;5061148;28;20040;-76
2023/10/08 08:31:35;;;;;;;21.42;5.60;;;17.80;87.90;;;;;;5054477;28;20063;-76
2023/10/08 08:34:03;;;;;;;16.27;5.53;;;17.80;88.40;;;;;;5061020;28;20031;-76
2023/10/08 08:36:31;;;;;;;18.70;5.50;;;17.70;88.80;;;;;;5056474;28;20032;-76
2023/10/08 08:38:57;;;;;;;17.20;5.10;;;17.80;88.70;;;;;;5067144;28;20488;-77
2023/10/08 08:41:23;;;;;;;18.77;4.90;;;18.00;87.90;;;;;;5049179;28;20032;-76
2023/10/08 08:43:58;;;;;;;13.15;5.22;;;18.30;86.90;;;;;;5066985;28;20069;-76
2023/10/08 08:46:35;;;;;;;16.88;5.68;;;18.60;86.00;;;;;;5055951;28;20494;-75
2023/10/08 08:49:04;;;;;;;17.20;5.22;;;18.70;85.20;;;;;;5059756;28;20123;-75
2023/10/08 08:51:30;;;;;;;13.63;4.55;;;18.60;85.30;;;;;;5056670;28;20032;-76
2023/10/08 08:53:59;;;;;;;15.40;5.28;;;18.60;85.50;;;;;;5068507;28;20043;-76
2023/10/08 08:56:25;;;;;;;;;;;18.70;86.20;;;;;;5056994;28;20393;-76
2023/10/08 08:58:52;;;;;;;12.75;4.53;;;18.50;86.80;;;;;;5067040;28;19916;-76
2023/10/08 09:01:19;;;;;;;12.88;4.63;;;18.60;86.90;;;;;;5048854;28;20032;-76
2023/10/08 09:03:48;;;;;;;13.82;4.18;;;18.80;86.50;;;;;;5068947;28;20039;-76
2023/10/08 09:06:13;;;;;;;9.83;3.87;;;19.30;85.10;;;;;;5050223;28;20104;-76
2023/10/08 09:08:45;;;;;;;13.98;4.50;;;19.50;84.60;;;;;;5061108;28;20866;-76
2023/10/08 09:11:16;;;;;;;12.00;4.45;;;19.70;83.80;;;;;;5055261;28;20021;-76
2023/10/08 09:13:41;;;;;;;13.68;4.47;;;19.70;83.80;;;;;;5063952;28;20028;-76
2023/10/08 09:16:12;;;;;;;11.30;4.50;;;19.70;83.70;;;;;;5064255;28;20024;-77
2023/10/08 09:18:39;;;;;;;14.63;4.55;;;19.70;84.00;;;;;;5056532;28;20532;-76
2023/10/08 09:21:10;;;;;;;11.80;4.45;;;19.90;83.70;;;;;;5065544;28;20035;-76
2023/10/08 09:23:43;;;;;;;10.32;4.22;;;19.90;83.70;;;;;;5057687;28;20089;-76
2023/10/08 09:26:13;;;;;;;13.75;5.25;;;19.80;84.30;;;;;;5071757;28;20037;-76
2023/10/08 09:28:40;;;;;;;16.35;5.05;;;20.00;83.00;;;;;;5053495;28;20118;-76
2023/10/08 09:31:11;;;;;;;14.45;4.70;;;19.90;83.00;;;;;;5064206;28;20186;-74
2023/10/08 09:33:37;;;;;;;17.75;4.82;;;19.90;83.90;;;;;;5052337;28;20044;-75
2023/10/08 09:36:06;;;;;;;10.00;4.30;;;19.90;84.10;;;;;;5054507;28;20393;-75
2023/10/08 09:38:33;;;;;;;14.93;5.68;;;20.10;83.70;;;;;;5054467;28;20036;-75
2023/10/08 09:41:02;;;;;;;11.15;4.03;;;20.20;83.30;;;;;;5062065;28;20064;-77
2023/10/08 09:43:28;;;;;;;;;;;20.00;83.40;;;;;;5051024;28;20040;-76
2023/10/08 09:46:05;;;;;;;11.90;4.15;;;19.70;84.80;;;;;;5064625;28;20663;-77
2023/10/08 09:48:34;;;;;;;10.00;4.30;;;19.80;84.90;;;;;;5049133;28;20043;-76
2023/10/08 09:51:00;;;;;;;;;;;19.90;84.10;;;;;;5068557;28;20138;-76
2023/10/08 09:53:40;;;;;;;12.50;4.25;;;19.90;84.40;;;;;;5057197;28;19916;-77
2023/10/08 09:56:14;;;;;;;9.00;4.38;;;19.60;85.60;;;;;;5068650;28;20040;-76
2023/10/08 09:58:41;;;;;;;14.95;4.90;;;19.60;86.10;;;;;;5058858;28;21243;-76
2023/10/08 10:01:07;;;;;;;14.90;5.15;;;19.70;86.30;;;;;;5068445;28;20060;-76
2023/10/08 10:03:36;;;;;;;11.93;4.70;;;19.90;85.50;;;;;;5052419;28;20477;-77
2023/10/08 10:06:02;;;;;;;12.90;4.83;;;20.10;85.20;;;;;;5070609;28;20377;-76
2023/10/08 10:08:35;;;;;;;22.40;5.07;;;20.60;83.60;;;;;;5056907;28;20062;-77
2023/10/08 10:11:01;;;;;;;12.57;4.45;;;20.70;82.80;;;;;;5071284;28;20051;-75
2023/10/08 10:13:29;;;;;;;14.65;5.45;;;20.90;82.90;;;;;;5059142;28;20484;-75
2023/10/08 10:15:57;;;;;;;11.00;4.00;;;21.00;81.90;;;;;;5062645;28;20037;-76
2023/10/08 10:18:25;;;;;;;9.80;4.57;;;21.50;81.10;;;;;;5064013;28;20044;-76
2023/10/08 10:21:02;;;;;;;10.23;4.40;;;21.70;80.30;;;;;;5066058;28;20123;-76
2023/10/08 10:23:51;;;;;;;9.05;4.50;;;21.90;79.50;;;;;;5069472;28;20048;-75
2023/10/08 10:26:28;;;;;;;9.02;4.35;;;21.70;79.80;;;;;;5075611;28;20483;-75
2023/10/08 10:29:14;;;;;;;11.60;4.25;;;21.50;80.80;;;;;;5053334;28;20033;-76
2023/10/08 10:31:44;;;;;;;13.45;4.50;;;21.30;81.70;;;;;;5068581;28;20038;-76
2023/10/08 10:34:12;;;;;;;13.65;4.57;;;21.20;82.50;;;;;;5056712;28;20051;-75
2023/10/08 10:36:39;;;;;;;10.80;4.30;;;21.10;82.90;;;;;;5068459;28;20036;-75
2023/10/08 10:39:15;;;;;;;10.80;5.18;;;21.00;83.40;;;;;;5057268;28;21054;-75
2023/10/08 10:41:44;;;;;;;14.32;4.90;;;21.10;83.20;;;;;;5065510;28;21210;-77
2023/10/08 10:44:11;;;;;;;19.52;4.78;;;21.00;83.70;;;;;;5066138;28;20515;-75
2023/10/08 10:46:41;;;;;;;9.38;4.57;;;21.00;84.30;;;;;;5062718;28;20137;-77
2023/10/08 10:49:31;;;;;;;11.20;4.13;;;20.80;84.90;;;;;;5067196;28;20028;-75
2023/10/08 10:51:57;;;;;;;10.93;4.35;;;20.90;85.00;;;;;;5065232;28;20039;-76
2023/10/08 10:54:24;;;;;;;8.43;4.20;;;21.10;84.30;;;;;;5069981;28;20035;-76
2023/10/08 10:57:16;;;;;;;10.40;4.65;;;21.10;84.70;;;;;;5060019;28;20028;-76
2023/10/08 10:59:37;;;;;;;13.68;4.78;;;21.10;84.70;;;;;;5069937;28;20036;-76
2023/10/08 11:02:07;;;;;;;9.95;4.15;;;21.30;84.20;;;;;;5053105;28;20343;-76
2023/10/08 11:04:47;;;;;;;9.68;4.22;;;21.40;83.50;;;;;;5069251;28;20056;-76
2023/10/08 11:07:15;;;;;;;14.13;4.88;;;21.30;82.10;;;;;;5056149;28;20067;-76
2023/10/08 11:09:44;;;;;;;10.85;4.90;;;21.30;83.70;;;;;;5064612;28;20028;-75
2023/10/08 11:12:12;;;;;;;6.90;3.60;;;21.40;83.60;;;;;;5056477;28;20064;-76
2023/10/08 11:14:41;;;;;;;10.20;4.00;;;21.60;82.30;;;;;;5065750;28;20032;-76
2023/10/08 11:17:11;;;;;;;;;;;21.70;81.70;;;;;;5052518;28;20024;-76
2023/10/08 11:19:36;;;;;;;10.57;4.65;;;21.90;80.90;;;;;;5067383;28;19908;-75
2023/10/08 11:22:02;;;;;;;9.57;3.97;;;21.80;81.00;;;;;;5052782;28;20036;-75
2023/10/08 11:24:33;;;;;;;7.15;3.40;;;21.80;81.10;;;;;;5067392;28;20048;-76
2023/10/08 11:27:15;;;;;;;9.68;3.67;;;22.00;79.20;;;;;;5059049;28;20537;-76
2023/10/08 11:29:47;;;;;;;11.98;4.00;;;22.00;77.90;;;;;;5064603;28;20399;-76
2023/10/08 11:32:17;;;;;;;7.55;3.95;;;22.20;78.70;;;;;;5058954;28;20139;-75
2023/10/08 11:34:49;;;;;;;8.57;3.60;;;22.30;78.20;;;;;;5064568;28;20036;-75
2023/10/08 11:37:26;;;;;;;11.40;3.67;;;22.80;76.30;;;;;;5056517;28;20028;-75
2023/10/08 11:39:53;;;;;;;7.20;3.70;;;22.90;72.70;;;;;;5065112;28;20043;-75
2023/10/08 11:42:43;;;;;;;4.80;3.17;;;23.20;70.90;;;;;;5051243;28;20671;-75
2023/10/08 11:46:14;;;;;;;7.15;3.20;;;23.30;69.00;;;;;;5065567;28;20159;-75
2023/10/08 11:48:03;;;;;;;7.70;3.30;;;23.50;69.20;;;;;;5054697;28;20044;-75
2023/10/08 11:50:30;;;;;;;11.98;3.30;;;23.60;68.90;;;;;;5063644;28;20150;-75
2023/10/08 11:53:01;;;;;;;10.05;3.00;;;23.70;67.90;;;;;;5055465;28;21132;-76
2023/10/08 11:55:27;;;;;;;8.40;3.30;;;24.00;65.90;;;;;;5064509;28;20111;-75
2023/10/08 11:57:54;;;;;;;8.80;3.03;;;24.00;62.20;;;;;;5056825;28;20023;-75
2023/10/08 12:00:20;;;;;;;4.65;2.35;;;23.80;62.80;;;;;;5070899;28;20030;-76
2023/10/08 12:02:48;;;;;;;9.35;2.75;;;23.90;63.20;;;;;;5054128;28;20116;-75
2023/10/08 12:05:32;;;;;;;7.73;2.70;;;24.00;60.50;;;;;;5070477;28;20093;-76
2023/10/08 12:07:58;;;;;;;10.98;2.92;;;24.10;58.60;;;;;;5056445;28;20269;-75
2023/10/08 12:10:24;;;;;;;8.10;2.60;;;24.00;60.00;;;;;;5063525;28;20048;-75
2023/10/08 12:12:49;;;;;;;8.63;2.83;;;24.10;59.50;;;;;;5055151;28;20040;-76
2023/10/08 12:15:19;;;;;;;7.57;2.30;;;24.10;59.80;;;;;;5080071;28;20509;-75
2023/10/08 12:18:08;;;;;;;6.63;2.20;;;24.30;59.50;;;;;;5056954;28;20155;-75
2023/10/08 12:20:34;;;;;;;8.25;2.80;;;24.30;58.10;;;;;;5066377;28;20035;-75
2023/10/08 12:23:00;;;;;;;4.72;2.42;;;24.30;57.70;;;;;;5046857;28;20089;-75
2023/10/08 12:25:26;;;;;;;7.60;2.33;;;24.40;56.70;;;;;;5065739;28;20557;-75
2023/10/08 12:27:51;;;;;;;5.50;2.50;;;24.50;54.60;;;;;;5054075;28;20484;-75
2023/10/08 12:30:17;;;;;;;7.10;3.17;;;24.30;55.30;;;;;;5062622;28;20511;-75
2023/10/08 12:32:46;;;;;;;4.72;2.55;;;24.30;57.10;;;;;;5071299;28;20077;-75
2023/10/08 12:35:12;;;;;;;5.28;2.70;;;24.20;56.50;;;;;;5057001;28;20020;-75
2023/10/08 12:37:39;;;;;;;7.30;2.58;;;24.10;56.90;;;;;;5065971;28;20036;-75
2023/10/08 12:40:22;;;;;;;9.52;2.75;;;24.10;56.50;;;;;;5053411;28;20032;-75
2023/10/08 12:42:50;;;;;;;6.45;2.47;;;23.80;56.60;;;;;;5059916;28;20033;-76
2023/10/08 12:45:20;;;;;;;8.25;2.63;;;23.80;56.80;;;;;;5054832;28;20021;-76
2023/10/08 12:47:49;;;;;;;8.15;2.63;;;23.80;57.10;;;;;;5070073;28;20198;-77
2023/10/08 12:50:15;;;;;;;;;;;23.90;56.40;;;;;;5052031;28;20353;-75
2023/10/08 12:52:52;;;;;;;5.38;2.05;;;23.90;56.60;;;;;;5066218;28;19966;-75
2023/10/08 12:55:23;;;;;;;7.20;2.75;;;24.00;56.50;;;;;;5051705;28;20028;-75
2023/10/08 12:57:55;;;;;;;8.10;3.08;;;23.90;56.70;;;;;;5063629;28;20082;-76
2023/10/08 13:00:23;;;;;;;9.88;2.50;;;23.80;55.70;;;;;;5054364;28;20136;-76
2023/10/08 13:02:53;;;;;;;8.73;2.95;;;23.60;56.00;;;;;;5063116;28;20044;-75
2023/10/08 13:05:27;;;;;;;6.53;2.75;;;23.50;56.20;;;;;;5057123;28;20052;-76
2023/10/08 13:07:55;;;;;;;7.03;2.90;;;23.40;56.80;;;;;;5065414;28;20095;-76
2023/10/08 13:10:22;;;;;;;7.55;2.80;;;23.50;56.40;;;;;;5049670;28;20114;-75
2023/10/08 13:12:48;;;;;;;8.02;2.72;;;23.90;56.00;;;;;;5066248;28;20039;-76